Time;durP1;ratioP1;P1;durP2;ratioP2;P2;SDS_P1;SDS_P2;PMS_P1;PMS_P2;Temp;Humidity;BMP_temperature;BMP_pressure;BME280_temperature;BME280_humidity;BME280_pressure;Samples;Min_cycle;Max_cycle;Signal;HPM_P1;HPM_P2
2023/07/28 00:02:02;;;;;;;4.60;4.10;;;17.90;99.90;;;;;;5011926;28;20064;-51
2023/07/28 00:04:27;;;;;;;5.97;4.10;;;17.90;99.90;;;;;;5011825;28;20029;-52
2023/07/28 00:06:53;;;;;;;9.93;4.40;;;17.80;99.90;;;;;;5011682;28;20040;-46
2023/07/28 00:09:18;;;;;;;6.15;4.15;;;17.80;99.90;;;;;;5011780;28;20057;-50
2023/07/28 00:11:44;;;;;;;6.07;4.47;;;17.90;99.90;;;;;;5011857;28;20030;-48
2023/07/28 00:14:09;;;;;;;5.65;5.05;;;17.80;99.90;;;;;;5011816;28;20022;-51
2023/07/28 00:16:34;;;;;;;5.55;4.85;;;17.90;99.90;;;;;;5011682;28;20044;-53
2023/07/28 00:19:00;;;;;;;6.05;4.63;;;17.80;99.90;;;;;;5011379;28;20030;-50
2023/07/28 00:21:26;;;;;;;4.65;4.20;;;17.90;99.90;;;;;;5011742;28;20034;-49
2023/07/28 00:23:52;;;;;;;5.95;4.43;;;17.80;99.90;;;;;;5011876;28;20040;-47
2023/07/28 00:26:18;;;;;;;5.68;4.63;;;17.80;99.90;;;;;;5011723;28;20105;-50
2023/07/28 00:28:43;;;;;;;5.35;4.80;;;17.80;99.90;;;;;;5011413;28;20501;-52
2023/07/28 00:31:09;;;;;;;6.07;4.97;;;17.80;99.90;;;;;;5011556;28;20015;-47
2023/07/28 00:33:34;;;;;;;4.97;4.47;;;17.80;99.90;;;;;;5011446;28;20050;-48
2023/07/28 00:36:00;;;;;;;10.57;5.30;;;17.70;99.90;;;;;;5011297;28;20026;-47
2023/07/28 00:38:25;;;;;;;9.10;5.13;;;17.70;99.90;;;;;;5011248;28;20030;-49
2023/07/28 00:40:51;;;;;;;5.88;5.15;;;17.70;99.90;;;;;;5011534;28;20191;-49
2023/07/28 00:43:16;;;;;;;7.70;5.35;;;17.80;99.90;;;;;;4993837;28;20030;-48
2023/07/28 00:45:42;;;;;;;5.82;4.97;;;17.70;99.90;;;;;;5011243;28;20026;-52
2023/07/28 00:48:12;;;;;;;6.57;5.22;;;17.70;99.90;;;;;;5011317;28;20121;-48
2023/07/28 00:50:42;;;;;;;9.07;5.30;;;17.70;99.90;;;;;;4993625;28;20371;-47
2023/07/28 00:53:08;;;;;;;7.20;4.10;;;17.70;99.90;;;;;;5011521;28;20480;-47
2023/07/28 00:55:34;;;;;;;6.95;4.93;;;17.70;99.90;;;;;;5012961;28;20113;-48
2023/07/28 00:57:59;;;;;;;5.05;3.88;;;17.80;99.90;;;;;;5014831;28;20030;-47
2023/07/28 01:00:25;;;;;;;7.55;4.70;;;17.80;99.90;;;;;;5014949;28;20041;-45
2023/07/28 01:02:50;;;;;;;5.70;4.57;;;17.80;99.90;;;;;;5015404;28;20397;-50
2023/07/28 01:05:16;;;;;;;7.68;4.88;;;17.70;99.90;;;;;;5015205;28;20153;-47
2023/07/28 01:08:02;;;;;;;5.60;4.70;;;17.80;99.90;;;;;;5014685;28;20022;-47
2023/07/28 01:10:32;;;;;;;7.97;4.68;;;17.70;99.90;;;;;;5014935;28;20022;-43
2023/07/28 01:12:58;;;;;;;4.90;4.32;;;17.70;99.90;;;;;;4997732;28;20497;-48
2023/07/28 01:15:24;;;;;;;5.05;4.22;;;17.70;99.90;;;;;;5015075;28;20026;-47
2023/07/28 01:17:50;;;;;;;7.68;4.70;;;17.80;99.90;;;;;;5014565;28;20033;-46
2023/07/28 01:20:16;;;;;;;5.40;4.18;;;17.70;99.90;;;;;;5015223;28;20084;-47
2023/07/28 01:22:42;;;;;;;6.30;4.50;;;17.70;99.90;;;;;;4997235;28;20036;-47
2023/07/28 01:25:10;;;;;;;7.20;4.40;;;17.80;99.90;;;;;;5014597;28;20112;-49
2023/07/28 01:27:37;;;;;;;8.43;4.55;;;17.70;99.90;;;;;;5014178;28;20033;-50
2023/07/28 01:30:03;;;;;;;5.40;4.68;;;17.70;99.90;;;;;;5014618;28;20029;-48
2023/07/28 01:32:28;;;;;;;10.60;4.30;;;17.70;99.90;;;;;;5014560;28;20026;-47
2023/07/28 01:34:54;;;;;;;6.40;4.32;;;17.70;99.90;;;;;;5014475;28;20028;-47
2023/07/28 01:37:20;;;;;;;6.75;4.45;;;17.70;99.90;;;;;;5013908;28;20026;-46
2023/07/28 01:39:45;;;;;;;5.32;4.28;;;17.70;99.90;;;;;;5014282;28;20439;-49
2023/07/28 01:42:11;;;;;;;6.38;4.32;;;17.80;99.90;;;;;;5014290;28;20037;-51
2023/07/28 01:44:36;;;;;;;5.40;4.07;;;17.70;99.90;;;;;;5014273;28;20108;-47
2023/07/28 01:47:02;;;;;;;7.05;4.32;;;17.70;99.90;;;;;;5014258;28;20030;-47
2023/07/28 01:49:27;;;;;;;5.13;3.85;;;17.80;99.90;;;;;;5013982;28;20343;-48
2023/07/28 01:51:53;;;;;;;5.82;4.07;;;17.70;99.90;;;;;;5012887;28;20026;-46
2023/07/28 01:54:18;;;;;;;7.72;4.10;;;17.70;99.90;;;;;;5014207;28;20021;-51
2023/07/28 01:56:44;;;;;;;6.53;3.50;;;17.70;99.90;;;;;;5014047;28;20044;-49
2023/07/28 01:59:09;;;;;;;4.95;4.03;;;17.80;99.90;;;;;;5013971;28;20397;-46
2023/07/28 02:01:35;;;;;;;4.82;4.25;;;17.70;99.90;;;;;;5014060;28;20052;-48
2023/07/28 02:04:00;;;;;;;4.43;3.97;;;17.80;99.90;;;;;;5013975;28;20034;-47
2023/07/28 02:06:27;;;;;;;4.90;4.18;;;17.80;99.90;;;;;;5013467;28;20237;-45
2023/07/28 02:08:53;;;;;;;4.70;4.05;;;17.80;99.90;;;;;;5013893;28;20058;-49
2023/07/28 02:11:18;;;;;;;4.72;4.32;;;17.70;99.90;;;;;;5013747;28;20062;-47
2023/07/28 02:13:44;;;;;;;5.10;4.15;;;17.80;99.90;;;;;;5014030;28;20104;-49
2023/07/28 02:16:09;;;;;;;5.20;4.03;;;17.70;99.90;;;;;;5013731;28;20105;-47
2023/07/28 02:18:35;;;;;;;5.40;3.80;;;17.90;99.90;;;;;;5013495;28;20029;-47
2023/07/28 02:21:00;;;;;;;8.27;5.35;;;17.80;99.90;;;;;;5013964;28;20045;-48
2023/07/28 02:23:26;;;;;;;4.65;4.22;;;17.80;99.90;;;;;;5013973;28;20088;-47
2023/07/28 02:25:51;;;;;;;5.25;4.47;;;17.80;99.90;;;;;;4995945;28;20035;-51
2023/07/28 02:28:17;;;;;;;7.75;5.35;;;17.80;99.90;;;;;;5013356;28;20049;-50
2023/07/28 02:30:42;;;;;;;3.80;3.40;;;18.00;99.90;;;;;;5013322;28;20041;-49
2023/07/28 02:33:08;;;;;;;3.75;3.22;;;17.70;99.90;;;;;;5013196;28;20050;-52
2023/07/28 02:35:33;;;;;;;6.93;4.30;;;17.80;99.90;;;;;;5012927;28;20022;-51
2023/07/28 02:37:59;;;;;;;5.15;4.28;;;17.90;99.90;;;;;;5013136;28;20410;-48
2023/07/28 02:40:24;;;;;;;5.45;3.65;;;17.80;99.90;;;;;;5013293;28;20500;-51
2023/07/28 02:42:50;;;;;;;5.97;3.83;;;17.90;99.90;;;;;;5012078;28;20033;-51
2023/07/28 02:45:15;;;;;;;4.35;3.95;;;17.90;99.90;;;;;;4995872;28;20030;-52
2023/07/28 02:47:41;;;;;;;4.25;3.70;;;17.80;99.90;;;;;;5012748;28;20112;-48
2023/07/28 02:50:06;;;;;;;5.30;4.03;;;17.90;99.90;;;;;;5013128;28;20034;-46
2023/07/28 02:52:32;;;;;;;5.43;4.22;;;17.80;99.90;;;;;;5013227;28;20409;-49
2023/07/28 02:54:57;;;;;;;6.03;4.00;;;17.70;99.90;;;;;;5013078;28;20033;-49
2023/07/28 02:57:23;;;;;;;6.55;4.13;;;17.80;99.90;;;;;;5012928;28;20045;-48
2023/07/28 02:59:48;;;;;;;4.47;3.67;;;17.70;99.90;;;;;;5012857;28;20092;-50
2023/07/28 03:02:14;;;;;;;4.00;3.38;;;17.80;99.90;;;;;;5012862;28;20033;-49
2023/07/28 03:04:39;;;;;;;4.38;3.10;;;17.70;99.90;;;;;;5012863;28;20038;-50
2023/07/28 03:07:05;;;;;;;8.30;3.42;;;17.80;99.90;;;;;;5012686;28;20410;-48
2023/07/28 03:09:30;;;;;;;7.35;3.75;;;17.80;99.90;;;;;;5012489;28;20113;-51
2023/07/28 03:11:56;;;;;;;3.92;3.63;;;17.70;99.90;;;;;;5012818;28;20025;-47
2023/07/28 03:14:22;;;;;;;4.80;3.95;;;17.70;99.90;;;;;;5012723;28;20108;-50
2023/07/28 03:16:47;;;;;;;5.95;3.88;;;17.80;99.90;;;;;;5012618;28;20034;-52
2023/07/28 03:19:12;;;;;;;4.63;3.78;;;17.80;99.90;;;;;;5011518;28;20030;-48
2023/07/28 03:21:38;;;;;;;6.25;3.85;;;17.70;99.90;;;;;;5011445;28;20065;-49
2023/07/28 03:24:04;;;;;;;5.10;3.58;;;17.70;99.90;;;;;;5012575;28;20101;-52
2023/07/28 03:26:29;;;;;;;5.95;3.58;;;17.80;99.90;;;;;;5012834;28;20056;-51
2023/07/28 03:28:55;;;;;;;4.03;3.28;;;17.70;99.90;;;;;;5012469;28;20557;-47
2023/07/28 03:31:20;;;;;;;7.85;3.60;;;17.70;99.90;;;;;;4994890;28;20033;-47
2023/07/28 03:33:46;;;;;;;4.25;3.38;;;17.70;99.90;;;;;;5012296;28;20022;-47
2023/07/28 03:36:12;;;;;;;3.72;3.42;;;17.70;99.90;;;;;;5012157;28;20029;-52
2023/07/28 03:38:38;;;;;;;4.03;3.72;;;17.60;99.90;;;;;;5012166;28;20041;-53
2023/07/28 03:41:03;;;;;;;4.13;3.72;;;17.60;99.90;;;;;;5012341;28;20389;-50
2023/07/28 03:43:29;;;;;;;4.47;3.78;;;17.60;99.90;;;;;;5012269;28;20046;-49
2023/07/28 03:45:54;;;;;;;4.05;3.65;;;17.70;99.90;;;;;;5012204;28;20059;-49
2023/07/28 03:48:20;;;;;;;7.05;4.03;;;17.60;99.90;;;;;;5011993;28;20026;-50
2023/07/28 03:50:45;;;;;;;4.18;3.45;;;17.60;99.90;;;;;;5012266;28;20045;-50
2023/07/28 03:53:11;;;;;;;5.97;3.80;;;17.60;99.90;;;;;;5012233;28;20501;-49
2023/07/28 03:55:36;;;;;;;5.28;4.13;;;17.50;99.90;;;;;;5012340;28;20029;-52
2023/07/28 03:58:02;;;;;;;4.50;4.13;;;17.60;99.90;;;;;;5012554;28;20034;-50
2023/07/28 04:00:29;;;;;;;5.15;3.92;;;17.70;99.90;;;;;;5012206;28;20176;-48
2023/07/28 04:02:54;;;;;;;5.28;4.05;;;17.70;99.90;;;;;;4995171;28;20057;-50
2023/07/28 04:05:19;;;;;;;5.13;3.88;;;17.70;99.90;;;;;;5012802;28;20124;-50
2023/07/28 04:07:45;;;;;;;4.78;3.72;;;17.60;99.90;;;;;;5012764;28;20375;-47
2023/07/28 04:10:11;;;;;;;5.13;3.72;;;17.60;99.90;;;;;;5012379;28;20044;-47
2023/07/28 04:12:36;;;;;;;3.97;3.67;;;17.60;99.90;;;;;;5012313;28;20382;-51
2023/07/28 04:15:02;;;;;;;6.28;4.22;;;17.70;99.90;;;;;;5011042;28;20029;-48
2023/07/28 04:17:27;;;;;;;5.18;4.28;;;17.80;99.90;;;;;;5011589;28;20100;-52
2023/07/28 04:19:53;;;;;;;6.10;4.05;;;17.70;99.90;;;;;;5011537;28;20041;-46
2023/07/28 04:22:21;;;;;;;6.28;4.22;;;17.70;99.90;;;;;;5011662;28;20022;-50
2023/07/28 04:24:47;;;;;;;4.53;4.13;;;17.60;99.90;;;;;;5011641;28;20075;-47
2023/07/28 04:27:13;;;;;;;3.60;3.15;;;17.70;99.90;;;;;;5011522;28;20074;-52
2023/07/28 04:29:39;;;;;;;6.30;3.95;;;17.90;99.90;;;;;;5013219;28;20029;-47
2023/07/28 04:32:05;;;;;;;4.35;3.78;;;17.80;99.90;;;;;;5015682;28;20476;-50
2023/07/28 04:34:33;;;;;;;5.13;3.58;;;17.80;99.90;;;;;;5015724;28;20026;-49
2023/07/28 04:36:59;;;;;;;4.40;3.60;;;18.30;99.90;;;;;;5015323;28;20083;-52
2023/07/28 04:39:24;;;;;;;8.93;4.25;;;17.70;99.90;;;;;;5015182;28;20026;-49
2023/07/28 04:41:50;;;;;;;4.85;3.65;;;17.70;99.90;;;;;;5015412;28;20109;-49
2023/07/28 04:44:15;;;;;;;4.40;3.47;;;17.90;99.90;;;;;;5015481;28;20436;-49
2023/07/28 04:46:41;;;;;;;4.47;3.83;;;17.80;99.90;;;;;;4997734;28;20034;-49
2023/07/28 04:49:06;;;;;;;3.83;3.45;;;17.90;99.90;;;;;;5015040;28;20029;-55
2023/07/28 04:51:32;;;;;;;8.13;3.72;;;17.90;99.90;;;;;;5015359;28;20117;-48
2023/07/28 04:53:57;;;;;;;4.43;4.03;;;17.90;99.90;;;;;;5015016;28;20350;-50
2023/07/28 04:56:23;;;;;;;3.92;3.45;;;18.00;99.90;;;;;;5015233;28;20240;-50
2023/07/28 04:58:48;;;;;;;3.67;3.38;;;18.00;99.90;;;;;;5015122;28;20497;-48
2023/07/28 05:01:14;;;;;;;4.32;3.20;;;18.20;99.90;;;;;;5015211;28;20041;-51
2023/07/28 05:03:39;;;;;;;6.03;3.30;;;18.00;99.90;;;;;;4997420;28;20026;-48
2023/07/28 05:06:05;;;;;;;10.80;3.67;;;18.00;99.90;;;;;;5013741;28;20026;-49
2023/07/28 05:08:31;;;;;;;8.10;3.20;;;18.00;99.90;;;;;;5015248;28;20018;-48
2023/07/28 05:10:56;;;;;;;4.80;3.30;;;18.10;99.90;;;;;;5015002;28;20441;-47
2023/07/28 05:13:22;;;;;;;4.95;3.60;;;18.10;99.90;;;;;;5015205;28;20037;-49
2023/07/28 05:15:47;;;;;;;3.13;2.83;;;18.00;99.90;;;;;;5014839;28;20033;-49
2023/07/28 05:18:13;;;;;;;4.63;3.33;;;18.10;99.90;;;;;;5014628;28;20076;-50
2023/07/28 05:20:38;;;;;;;3.60;3.30;;;18.20;99.90;;;;;;5014592;28;20030;-52
2023/07/28 05:23:04;;;;;;;4.05;3.40;;;18.20;99.90;;;;;;5013209;28;20440;-47
2023/07/28 05:25:29;;;;;;;3.88;3.15;;;18.20;99.90;;;;;;5013370;28;20490;-47
2023/07/28 05:27:55;;;;;;;3.25;3.05;;;18.20;99.90;;;;;;5014366;28;20032;-49
2023/07/28 05:30:20;;;;;;;3.20;2.97;;;18.20;99.90;;;;;;5014549;28;20141;-47
2023/07/28 05:32:47;;;;;;;4.43;3.35;;;18.30;99.90;;;;;;5014510;28;20372;-51
2023/07/28 05:35:14;;;;;;;4.70;3.30;;;18.20;99.90;;;;;;5014665;28;20021;-49
2023/07/28 05:37:39;;;;;;;4.88;3.33;;;18.20;99.90;;;;;;5014132;28;20036;-49
2023/07/28 05:40:05;;;;;;;3.20;2.90;;;18.20;99.90;;;;;;5014353;28;20405;-49
2023/07/28 05:42:31;;;;;;;3.92;3.35;;;18.20;99.90;;;;;;5014093;28;20497;-48
2023/07/28 05:44:56;;;;;;;3.88;3.50;;;18.20;99.90;;;;;;5014414;28;20022;-51
2023/07/28 05:47:22;;;;;;;3.03;2.78;;;18.20;99.90;;;;;;5014108;28;20117;-48
2023/07/28 05:49:47;;;;;;;3.25;2.88;;;18.40;99.90;;;;;;5013983;28;20025;-47
2023/07/28 05:52:13;;;;;;;3.65;2.80;;;18.50;99.90;;;;;;5014165;28;20343;-50
2023/07/28 05:54:38;;;;;;;4.88;2.47;;;18.70;99.90;;;;;;5014132;28;20022;-51
2023/07/28 05:57:04;;;;;;;2.75;2.55;;;18.60;99.90;;;;;;5014022;28;20034;-47
2023/07/28 05:59:30;;;;;;;7.75;2.67;;;18.70;99.90;;;;;;5013805;28;20026;-50
2023/07/28 06:01:55;;;;;;;5.93;3.05;;;18.70;99.90;;;;;;5014020;28;20030;-52
2023/07/28 06:04:21;;;;;;;3.15;2.33;;;18.80;99.90;;;;;;5013850;28;20061;-50
2023/07/28 06:06:47;;;;;;;5.80;2.00;;;18.80;99.90;;;;;;5013773;28;20044;-48
2023/07/28 06:09:12;;;;;;;4.22;2.33;;;18.90;99.90;;;;;;5013508;28;20052;-47
2023/07/28 06:11:38;;;;;;;1.98;1.60;;;19.00;99.90;;;;;;5012583;28;20444;-46
2023/07/28 06:14:03;;;;;;;2.35;1.63;;;19.00;99.90;;;;;;5013810;28;20044;-49
2023/07/28 06:16:29;;;;;;;3.42;1.88;;;19.20;99.90;;;;;;5012473;28;20026;-47
2023/07/28 06:18:54;;;;;;;3.05;1.77;;;19.20;99.90;;;;;;5013978;28;20398;-48
2023/07/28 06:21:20;;;;;;;4.28;1.90;;;19.40;99.90;;;;;;5013537;28;20042;-47
2023/07/28 06:23:45;;;;;;;1.55;1.40;;;19.30;99.90;;;;;;5013712;28;20081;-47
2023/07/28 06:26:11;;;;;;;5.70;1.63;;;19.40;99.90;;;;;;5013554;28;20030;-48
2023/07/28 06:28:38;;;;;;;2.35;1.92;;;19.60;99.90;;;;;;5013419;28;20026;-48
2023/07/28 06:31:03;;;;;;;1.42;1.40;;;19.80;99.90;;;;;;5013449;28;20018;-47
2023/07/28 06:33:29;;;;;;;1.83;1.33;;;19.70;99.90;;;;;;5013304;28;20029;-48
2023/07/28 06:35:54;;;;;;;1.40;1.35;;;20.20;99.90;;;;;;5009736;28;20080;-47
2023/07/28 06:38:20;;;;;;;3.33;1.52;;;21.20;99.90;;;;;;5011784;28;20060;-52
2023/07/28 06:40:45;;;;;;;2.13;0.77;;;22.30;99.90;;;;;;5013424;28;20022;-52
2023/07/28 06:43:11;;;;;;;0.60;0.60;;;24.00;99.90;;;;;;5013357;28;20022;-50
2023/07/28 06:45:36;;;;;;;0.80;0.77;;;24.70;99.90;;;;;;5012802;28;20530;-50
2023/07/28 06:48:03;;;;;;;2.88;0.90;;;25.50;99.90;;;;;;5012795;28;20030;-47
2023/07/28 06:50:28;;;;;;;1.50;0.50;;;26.40;99.90;;;;;;5012964;28;20024;-45
2023/07/28 06:52:54;;;;;;;0.40;0.40;;;27.10;99.90;;;;;;5011163;28;20026;-45
2023/07/28 06:55:21;;;;;;;1.65;0.50;;;27.00;99.90;;;;;;5012719;28;20053;-45
2023/07/28 06:57:47;;;;;;;1.83;0.65;;;27.00;99.90;;;;;;4994913;28;20041;-52
2023/07/28 07:00:14;;;;;;;0.60;0.60;;;27.60;99.90;;;;;;5013023;28;20439;-46
2023/07/28 07:02:40;;;;;;;0.90;0.60;;;28.30;99.90;;;;;;5012906;28;20401;-46
2023/07/28 07:05:06;;;;;;;0.40;0.40;;;28.80;99.90;;;;;;5013083;28;20022;-50
2023/07/28 07:07:32;;;;;;;0.47;0.30;;;28.90;99.90;;;;;;5012593;28;20037;-48
2023/07/28 07:09:58;;;;;;;2.58;0.40;;;29.00;99.90;;;;;;5012778;28;20481;-49
2023/07/28 07:12:23;;;;;;;0.30;0.30;;;29.10;99.90;;;;;;5012788;28;20073;-50
2023/07/28 07:14:49;;;;;;;0.55;0.40;;;28.50;99.90;;;;;;5012914;28;20089;-52
2023/07/28 07:17:14;;;;;;;0.25;0.25;;;28.30;99.90;;;;;;4995171;28;20026;-47
2023/07/28 07:19:40;;;;;;;1.65;0.40;;;28.40;99.90;;;;;;5012228;28;20145;-50
2023/07/28 07:22:06;;;;;;;1.42;0.50;;;28.50;99.90;;;;;;5012641;28;20112;-45
2023/07/28 07:24:32;;;;;;;0.47;0.47;;;28.30;99.90;;;;;;5012719;28;20030;-50
2023/07/28 07:26:57;;;;;;;0.57;0.50;;;28.10;99.90;;;;;;5012518;28;20071;-48
2023/07/28 07:29:23;;;;;;;0.30;0.30;;;27.30;99.90;;;;;;5012463;28;20482;-49
2023/07/28 07:31:48;;;;;;;0.40;0.30;;;26.50;99.90;;;;;;4994739;28;20112;-50
2023/07/28 07:34:14;;;;;;;2.88;0.45;;;25.80;99.90;;;;;;5012294;28;20389;-48
2023/07/28 07:36:40;;;;;;;1.30;0.40;;;25.20;99.90;;;;;;5012317;28;20030;-50
2023/07/28 07:39:05;;;;;;;2.92;0.52;;;24.50;99.90;;;;;;5012245;28;20054;-50
2023/07/28 07:41:31;;;;;;;1.33;0.50;;;23.90;99.90;;;;;;5012437;28;20404;-50
2023/07/28 07:43:56;;;;;;;0.57;0.57;;;23.50;99.90;;;;;;4994747;28;20509;-49
2023/07/28 07:46:22;;;;;;;0.55;0.55;;;23.20;99.90;;;;;;5012088;28;20504;-50
2023/07/28 07:48:48;;;;;;;1.02;0.90;;;22.70;99.90;;;;;;5011782;28;20030;-46
2023/07/28 07:51:14;;;;;;;0.40;0.40;;;22.50;99.90;;;;;;5012700;28;20097;-46
2023/07/28 07:53:40;;;;;;;0.47;0.47;;;22.40;99.90;;;;;;5012562;28;20057;-46
2023/07/28 07:56:07;;;;;;;0.47;0.47;;;21.90;99.90;;;;;;5012139;28;20080;-46
2023/07/28 07:58:33;;;;;;;0.30;0.30;;;21.70;99.90;;;;;;5012434;28;20080;-49
2023/07/28 08:00:59;;;;;;;0.40;0.40;;;21.60;99.90;;;;;;5012959;28;20405;-49
2023/07/28 08:03:25;;;;;;;0.80;0.45;;;21.60;99.90;;;;;;5011741;28;20083;-50
2023/07/28 08:05:51;;;;;;;0.50;0.50;;;21.30;99.90;;;;;;5011950;28;20030;-46
2023/07/28 08:08:17;;;;;;;0.40;0.40;;;21.30;99.90;;;;;;4993983;28;20062;-49
2023/07/28 08:10:43;;;;;;;2.63;0.50;;;21.30;99.90;;;;;;5006267;28;20116;-45
2023/07/28 08:13:09;;;;;;;2.13;0.68;;;21.50;99.90;;;;;;5011685;28;20029;-48
2023/07/28 08:15:34;;;;;;;0.60;0.60;;;21.20;99.90;;;;;;5011822;28;20394;-49
2023/07/28 08:18:00;;;;;;;1.27;0.60;;;21.20;99.90;;;;;;5010384;28;20038;-51
2023/07/28 08:20:26;;;;;;;2.25;0.57;;;21.20;99.90;;;;;;5008984;28;20044;-49
2023/07/28 08:22:52;;;;;;;0.40;0.40;;;21.30;99.90;;;;;;4995160;28;20023;-47
2023/07/28 08:25:18;;;;;;;1.20;0.50;;;21.40;99.90;;;;;;4992867;28;20077;-46
2023/07/28 08:27:43;;;;;;;0.52;0.52;;;21.50;99.90;;;;;;5011456;28;20080;-51
2023/07/28 08:30:10;;;;;;;4.30;0.63;;;21.50;99.90;;;;;;5010921;28;20026;-50
2023/07/28 08:32:35;;;;;;;0.35;0.35;;;21.60;99.90;;;;;;5011495;28;20554;-49
2023/07/28 08:35:01;;;;;;;1.10;0.52;;;21.70;99.90;;;;;;5011618;28;20033;-52
2023/07/28 08:37:28;;;;;;;0.65;0.50;;;21.90;99.90;;;;;;5011490;28;20026;-46
2023/07/28 08:39:54;;;;;;;0.43;0.40;;;21.90;99.90;;;;;;5011174;28;20026;-46
2023/07/28 08:42:21;;;;;;;0.88;0.85;;;22.00;99.90;;;;;;5010812;28;20029;-48
2023/07/28 08:44:47;;;;;;;1.20;0.57;;;21.90;99.90;;;;;;5011143;28;20025;-49
2023/07/28 08:47:12;;;;;;;0.45;0.45;;;21.80;99.90;;;;;;5011238;28;20025;-47
2023/07/28 08:49:38;;;;;;;0.55;0.55;;;22.00;99.90;;;;;;5011218;28;20022;-47
2023/07/28 08:52:05;;;;;;;0.40;0.40;;;22.00;99.90;;;;;;5011429;28;20076;-47
2023/07/28 08:54:30;;;;;;;1.10;0.65;;;22.00;99.90;;;;;;5011621;28;20030;-50
2023/07/28 08:56:59;;;;;;;2.22;0.50;;;22.10;99.90;;;;;;5011726;28;20037;-49
2023/07/28 08:59:29;;;;;;;0.57;0.45;;;22.20;99.90;;;;;;5010824;28;20026;-52
2023/07/28 09:01:57;;;;;;;1.05;0.55;;;22.30;99.90;;;;;;5011441;28;20028;-48
2023/07/28 09:04:24;;;;;;;0.40;0.40;;;22.40;99.90;;;;;;5011512;28;20080;-49
2023/07/28 09:06:50;;;;;;;0.40;0.40;;;22.50;99.90;;;;;;5010845;28;20033;-46
2023/07/28 09:09:18;;;;;;;0.52;0.52;;;22.90;99.90;;;;;;4992936;28;20493;-52
2023/07/28 09:11:49;;;;;;;19.50;16.95;;;22.80;99.90;;;;;;5010963;28;20061;-51
2023/07/28 09:14:16;;;;;;;3.35;2.33;;;22.90;99.90;;;;;;4994607;28;20030;-51
2023/07/28 09:16:45;;;;;;;14.38;8.45;;;23.30;99.90;;;;;;5003808;28;20026;-48
2023/07/28 09:19:11;;;;;;;0.77;0.77;;;23.10;99.90;;;;;;5012882;28;20149;-53
2023/07/28 09:21:42;;;;;;;1.23;0.52;;;23.20;99.90;;;;;;5012744;28;20112;-50
2023/07/28 09:24:10;;;;;;;0.77;0.77;;;23.60;99.90;;;;;;5014047;28;20125;-49
2023/07/28 09:26:47;;;;;;;0.68;0.68;;;23.60;99.90;;;;;;5000563;28;20169;-45
2023/07/28 09:29:20;;;;;;;2.50;0.70;;;23.70;99.90;;;;;;4994641;28;20446;-47
2023/07/28 09:31:47;;;;;;;0.45;0.45;;;23.70;99.90;;;;;;5004344;28;20022;-49
2023/07/28 09:34:23;;;;;;;0.55;0.40;;;23.80;99.90;;;;;;5012260;28;20076;-49
2023/07/28 09:36:49;;;;;;;0.82;0.82;;;24.00;99.90;;;;;;5012522;28;20034;-48
2023/07/28 09:39:15;;;;;;;2.35;0.40;;;24.00;99.90;;;;;;5013813;28;20559;-52
2023/07/28 09:41:41;;;;;;;1.90;0.43;;;24.10;99.90;;;;;;5013150;28;20401;-52
2023/07/28 09:44:06;;;;;;;1.05;0.55;;;24.10;99.90;;;;;;4996063;28;20030;-54
2023/07/28 09:46:38;;;;;;;0.50;0.32;;;24.00;99.90;;;;;;5014047;28;20034;-47
2023/07/28 09:49:12;;;;;;;0.85;0.57;;;23.80;99.90;;;;;;4996010;28;20117;-54
2023/07/28 09:51:40;;;;;;;0.30;0.30;;;23.60;99.90;;;;;;4995009;28;20026;-54
2023/07/28 09:54:23;;;;;;;0.60;0.60;;;23.40;99.90;;;;;;4994648;28;20262;-50
2023/07/28 09:56:48;;;;;;;0.60;0.60;;;23.50;99.90;;;;;;5009218;28;20076;-49
2023/07/28 09:59:16;;;;;;;1.60;0.57;;;23.60;99.90;;;;;;5013633;28;20026;-50
2023/07/28 10:01:45;;;;;;;0.57;0.57;;;23.50;99.90;;;;;;5014307;28;20037;-49
2023/07/28 10:04:10;;;;;;;2.08;0.40;;;23.20;99.90;;;;;;5013855;28;20034;-48
2023/07/28 10:06:37;;;;;;;2.03;0.55;;;23.10;99.90;;;;;;5014030;28;20114;-46
2023/07/28 10:09:05;;;;;;;0.65;0.60;;;23.10;99.90;;;;;;5013824;28;20049;-49
2023/07/28 10:11:31;;;;;;;2.15;0.60;;;23.00;99.90;;;;;;5013844;28;20109;-49
2023/07/28 10:13:56;;;;;;;2.17;0.50;;;23.10;99.90;;;;;;5014205;28;20057;-51
2023/07/28 10:16:38;;;;;;;1.35;0.65;;;23.10;99.90;;;;;;5013853;28;20033;-53
2023/07/28 10:19:03;;;;;;;3.83;0.65;;;23.20;99.90;;;;;;5013517;28;20041;-49
2023/07/28 10:21:30;;;;;;;17.98;13.93;;;23.40;99.90;;;;;;5013662;28;20041;-48
2023/07/28 10:23:57;;;;;;;2.92;1.23;;;23.60;99.90;;;;;;4995969;28;20030;-47
2023/07/28 10:26:57;;;;;;;1.20;0.50;;;23.50;99.90;;;;;;5013636;28;20033;-49
2023/07/28 10:29:23;;;;;;;2.42;0.70;;;23.50;99.90;;;;;;4982387;28;20029;-50
2023/07/28 10:31:58;;;;;;;0.98;0.98;;;23.40;99.90;;;;;;4996033;28;20036;-50
2023/07/28 10:34:24;;;;;;;2.05;0.80;;;23.50;99.90;;;;;;5013689;28;20018;-52
2023/07/28 10:36:59;;;;;;;0.73;0.63;;;23.60;99.90;;;;;;5013743;28;20026;-49
2023/07/28 10:39:25;;;;;;;0.90;0.90;;;23.40;99.90;;;;;;5012711;28;20030;-54
2023/07/28 10:42:03;;;;;;;1.10;1.10;;;23.30;99.90;;;;;;5013306;28;20531;-51
2023/07/28 10:44:30;;;;;;;0.90;0.90;;;23.20;99.90;;;;;;5014334;28;20481;-49
2023/07/28 10:46:56;;;;;;;1.75;1.20;;;23.00;99.90;;;;;;5013671;28;20401;-50
2023/07/28 10:49:21;;;;;;;1.23;1.00;;;22.90;99.90;;;;;;5013076;28;20477;-48
2023/07/28 10:51:48;;;;;;;0.80;0.80;;;22.90;99.90;;;;;;5014127;28;20038;-52
2023/07/28 10:54:16;;;;;;;1.38;0.70;;;22.90;99.90;;;;;;5012921;28;20018;-54
2023/07/28 10:56:42;;;;;;;0.95;0.85;;;22.80;99.90;;;;;;5012743;28;20084;-52
2023/07/28 10:59:07;;;;;;;0.90;0.90;;;23.00;99.90;;;;;;4995035;28;20478;-52
2023/07/28 11:01:35;;;;;;;0.70;0.70;;;22.80;99.90;;;;;;5012878;28;20038;-47
2023/07/28 11:04:06;;;;;;;3.50;0.90;;;22.90;99.90;;;;;;5012753;28;20485;-51
2023/07/28 11:06:32;;;;;;;0.95;0.95;;;22.90;99.90;;;;;;4995075;28;20041;-46
2023/07/28 11:08:58;;;;;;;1.10;1.00;;;22.90;99.90;;;;;;5012738;28;20076;-46
2023/07/28 11:11:23;;;;;;;1.40;1.30;;;22.90;99.90;;;;;;5012417;28;20473;-48
2023/07/28 11:13:49;;;;;;;3.50;1.50;;;22.90;99.90;;;;;;5012611;28;20064;-46
2023/07/28 11:16:14;;;;;;;2.05;1.95;;;22.70;99.90;;;;;;5011308;28;20033;-52
2023/07/28 11:18:40;;;;;;;1.90;1.80;;;22.70;99.90;;;;;;5012292;28;20033;-51
2023/07/28 11:21:05;;;;;;;2.45;2.25;;;22.60;99.90;;;;;;5010897;28;20481;-49
2023/07/28 11:23:31;;;;;;;2.90;2.70;;;22.60;99.90;;;;;;5012333;28;20026;-48
2023/07/28 11:25:56;;;;;;;2.58;2.15;;;22.70;99.90;;;;;;5012581;28;20093;-49
2023/07/28 11:28:22;;;;;;;2.78;2.20;;;22.70;99.90;;;;;;5011993;28;20029;-49
2023/07/28 11:30:48;;;;;;;2.42;1.38;;;22.70;99.90;;;;;;5012484;28;20093;-47
2023/07/28 11:33:13;;;;;;;1.70;1.60;;;22.70;99.90;;;;;;5012355;28;20022;-52
2023/07/28 11:35:40;;;;;;;1.70;1.60;;;22.60;99.90;;;;;;5011942;28;20029;-53
2023/07/28 11:38:07;;;;;;;2.15;1.73;;;22.60;99.90;;;;;;5011242;28;20036;-50
2023/07/28 11:40:33;;;;;;;1.75;1.65;;;22.90;99.90;;;;;;5011741;28;20051;-51
2023/07/28 11:42:59;;;;;;;2.45;1.77;;;22.90;99.90;;;;;;5011776;28;20034;-46
2023/07/28 11:45:25;;;;;;;2.50;1.55;;;23.20;99.90;;;;;;5012033;28;20026;-47
2023/07/28 11:48:04;;;;;;;1.77;1.67;;;23.10;99.90;;;;;;5011522;28;20045;-47
2023/07/28 11:50:34;;;;;;;3.13;1.60;;;23.20;99.90;;;;;;4992230;28;20026;-52
2023/07/28 11:53:01;;;;;;;2.03;1.75;;;23.10;99.90;;;;;;4992604;28;20038;-46
2023/07/28 11:55:26;;;;;;;1.85;1.67;;;23.10;99.90;;;;;;4992613;28;20033;-50
2023/07/28 11:57:53;;;;;;;1.98;1.88;;;23.00;99.90;;;;;;4992197;28;20456;-51
2023/07/28 12:00:27;;;;;;;1.80;1.70;;;23.00;99.90;;;;;;4992214;28;20114;-46
2023/07/28 12:03:03;;;;;;;1.90;1.80;;;23.00;99.90;;;;;;4985245;28;20025;-51
2023/07/28 12:05:29;;;;;;;1.88;1.77;;;22.80;99.90;;;;;;5012870;28;20445;-47
2023/07/28 12:07:54;;;;;;;3.78;1.70;;;22.70;99.90;;;;;;5011481;28;20057;-51
2023/07/28 12:10:20;;;;;;;1.95;1.80;;;22.70;99.90;;;;;;5011769;28;20117;-47
2023/07/28 12:12:46;;;;;;;1.65;1.55;;;22.80;99.90;;;;;;5011821;28;20022;-48
2023/07/28 12:15:28;;;;;;;1.45;1.35;;;22.90;99.90;;;;;;5012055;28;20026;-47
2023/07/28 12:18:19;;;;;;;1.30;1.30;;;22.80;99.90;;;;;;5011231;28;20034;-46
2023/07/28 12:20:47;;;;;;;1.45;1.30;;;22.80;99.90;;;;;;5007947;28;20481;-51
2023/07/28 12:23:20;;;;;;;1.48;1.20;;;22.90;99.90;;;;;;5012298;28;20018;-49
2023/07/28 12:25:48;;;;;;;1.48;1.38;;;22.80;99.90;;;;;;5011670;28;20025;-51
2023/07/28 12:28:13;;;;;;;5.07;4.55;;;22.80;99.90;;;;;;5011564;28;20029;-53
2023/07/28 12:30:39;;;;;;;5.38;3.03;;;22.90;99.90;;;;;;4993975;28;20024;-55
2023/07/28 12:33:06;;;;;;;1.40;1.33;;;23.00;99.90;;;;;;5011361;28;20029;-47
2023/07/28 12:35:34;;;;;;;1.63;1.30;;;22.90;99.90;;;;;;5011497;28;20053;-48
2023/07/28 12:38:04;;;;;;;1.23;1.23;;;22.90;99.90;;;;;;5010894;28;20397;-46
2023/07/28 12:40:31;;;;;;;1.05;1.05;;;22.90;99.90;;;;;;5011198;28;20572;-52
2023/07/28 12:42:57;;;;;;;2.80;1.25;;;23.10;99.90;;;;;;4993630;28;20061;-51